Time;durP1;ratioP1;P1;durP2;ratioP2;P2;SDS_P1;SDS_P2;PMS_P1;PMS_P2;Temp;Humidity;BMP_temperature;BMP_pressure;BME280_temperature;BME280_humidity;BME280_pressure;Samples;Min_cycle;Max_cycle;Signal;HPM_P1;HPM_P2
2022/09/05 00:02:01;;;;;;;;;0.50;0.50;;;;;25.05;45.92;101203.13;4865148;29;45466;-71
2022/09/05 00:04:50;;;;;;;;;1.25;1.25;;;;;25.03;46.53;101194.19;4872482;29;46378;-71
2022/09/05 00:07:44;;;;;;;;;2.00;2.00;;;;;24.95;46.55;101187.50;4883283;29;45594;-72
2022/09/05 00:10:47;;;;;;;;;2.00;2.00;;;;;25.01;46.64;101204.38;4883426;29;45420;-72
2022/09/05 00:13:27;;;;;;;;;1.50;1.50;;;;;24.91;46.23;101202.44;4883521;29;45391;-71
2022/09/05 00:16:12;;;;;;;;;2.00;2.00;;;;;24.91;46.39;101228.91;4883146;29;45520;-71
2022/09/05 00:19:00;;;;;;;;;2.00;2.00;;;;;24.89;46.82;101242.69;4883518;29;45498;-71
2022/09/05 00:21:49;;;;;;;;;2.00;2.00;;;;;24.85;46.51;101226.69;4883364;29;45397;-71
2022/09/05 00:24:42;;;;;;;;;1.25;0.25;;;;;24.81;46.83;101230.66;4872589;29;45411;-72
2022/09/05 00:27:48;;;;;;;;;2.25;2.00;;;;;24.56;46.97;101183.63;4858453;29;46079;-72
2022/09/05 00:30:20;;;;;;;;;1.75;1.75;;;;;24.74;46.68;101205.75;4794029;29;45710;-72
2022/09/05 00:33:13;;;;;;;;;1.50;1.50;;;;;24.75;46.24;101205.59;4871001;29;45374;-72
2022/09/05 00:36:08;;;;;;;;;1.75;1.75;;;;;24.75;46.95;101211.06;4883288;29;45949;-71
2022/09/05 00:38:34;;;;;;;;;1.00;1.00;;;;;24.73;46.45;101201.28;4865877;29;46044;-72
2022/09/05 00:41:04;;;;;;;;;1.00;0.25;;;;;24.74;46.43;101192.09;4867115;29;45385;-72
2022/09/05 00:43:35;;;;;;;;;1.00;1.00;;;;;24.56;46.05;101157.19;4883560;29;45400;-72
2022/09/05 00:46:02;;;;;;;;;3.25;2.00;;;;;24.77;46.15;101191.84;4878921;29;45603;-72
2022/09/05 00:48:47;;;;;;;;;0.75;0.25;;;;;24.74;46.14;101192.97;4883229;29;46120;-72
2022/09/05 00:51:34;;;;;;;;;2.50;2.00;;;;;24.78;46.28;101194.44;4883070;29;45457;-72
2022/09/05 00:54:21;;;;;;;;;1.00;1.00;;;;;24.79;46.69;101195.28;4867905;29;45480;-72
2022/09/05 00:57:36;;;;;;;;;1.00;1.00;;;;;24.74;46.49;101192.97;4873883;29;45329;-71
2022/09/05 01:00:06;;;;;;;;;2.50;1.00;;;;;24.78;47.14;101208.09;4875248;29;46552;-71
2022/09/05 01:02:57;;;;;;;;;1.00;1.00;;;;;24.77;46.98;101206.38;4882664;29;45536;-72
2022/09/05 01:05:36;;;;;;;;;1.00;1.00;;;;;24.66;47.04;101187.31;4882910;29;45475;-72
2022/09/05 01:08:02;;;;;;;;;2.00;2.00;;;;;24.74;46.94;101192.97;4874686;29;45362;-72
2022/09/05 01:11:09;;;;;;;;;2.00;2.00;;;;;24.70;46.67;101175.09;4882396;29;45437;-72
2022/09/05 01:13:34;;;;;;;;;1.00;1.00;;;;;24.66;46.57;101168.19;4867480;29;45554;-72
2022/09/05 01:16:20;;;;;;;;;3.00;3.00;;;;;24.65;46.46;101162.88;4882782;29;45387;-72
2022/09/05 01:19:01;;;;;;;;;2.00;2.00;;;;;24.64;46.92;101164.75;4870159;29;45764;-72
2022/09/05 01:21:54;;;;;;;;;2.00;2.00;;;;;24.51;46.85;101147.66;4873338;29;45652;-72
2022/09/05 01:24:37;;;;;;;;;1.75;1.75;;;;;24.66;46.96;101197.34;4875867;29;45380;-71
2022/09/05 01:27:35;;;;;;;;;1.50;1.00;;;;;24.66;46.59;101219.16;4872162;29;45274;-72
2022/09/05 01:30:11;;;;;;;;;2.00;2.00;;;;;24.67;46.96;101268.16;4865854;29;45522;-71
2022/09/05 01:32:55;;;;;;;;;2.00;2.00;;;;;24.67;46.68;101249.06;4882567;29;45532;-72
2022/09/05 01:35:26;;;;;;;;;2.00;2.00;;;;;24.66;47.85;101295.59;4882911;29;45390;-72
2022/09/05 01:38:05;;;;;;;;;2.75;2.00;;;;;24.56;49.50;101202.72;4882491;29;45307;-73
2022/09/05 01:41:03;;;;;;;;;2.50;2.50;;;;;24.36;51.15;101183.41;4885526;29;45334;-73
2022/09/05 01:43:51;;;;;;;;;2.25;2.00;;;;;24.29;52.85;101170.41;4877334;29;45620;-73
2022/09/05 01:46:53;;;;;;;;;1.00;1.00;;;;;24.21;53.33;101147.38;4873821;29;45583;-73
2022/09/05 01:49:28;;;;;;;;;1.00;1.00;;;;;24.07;53.66;101133.16;4883646;29;45419;-74
2022/09/05 01:52:14;;;;;;;;;3.00;2.00;;;;;24.03;54.59;101138.84;4892383;29;45393;-74
2022/09/05 01:55:01;;;;;;;;;3.50;2.00;;;;;23.97;55.25;101155.75;4885121;29;46160;-74
2022/09/05 01:57:51;;;;;;;;;2.00;2.00;;;;;23.92;56.18;101179.75;4885361;29;45400;-74
2022/09/05 02:00:22;;;;;;;;;2.50;2.50;;;;;23.84;56.58;101201.34;4883784;29;45379;-75
2022/09/05 02:03:23;;;;;;;;;5.75;3.25;;;;;23.80;56.12;101187.06;4885648;29;45558;-74
2022/09/05 02:05:51;;;;;;;;;2.25;2.25;;;;;23.75;55.79;101180.25;4872897;29;45608;-74
2022/09/05 02:08:29;;;;;;;;;2.75;2.00;;;;;23.70;55.84;101175.16;4878309;29;45345;-74
2022/09/05 02:11:05;;;;;;;;;2.00;2.00;;;;;23.60;56.56;101175.03;4874184;29;45331;-74
2022/09/05 02:13:33;;;;;;;;;2.75;2.75;;;;;23.63;56.94;101171.22;4870801;29;45530;-74
2022/09/05 02:16:01;;;;;;;;;3.00;2.00;;;;;23.59;57.22;101173.31;4885133;29;46217;-74
2022/09/05 02:18:35;;;;;;;;;3.00;3.00;;;;;23.55;57.32;101182.72;4884301;29;45499;-73
2022/09/05 02:21:09;;;;;;;;;2.25;2.25;;;;;23.56;57.54;101192.63;4882336;29;45418;-73
2022/09/05 02:23:49;;;;;;;;;3.25;3.00;;;;;23.55;57.42;101193.63;4873337;29;45404;-74
2022/09/05 02:26:25;;;;;;;;;3.50;3.50;;;;;23.50;57.85;101193.13;4885005;29;46610;-74
2022/09/05 02:28:58;;;;;;;;;2.00;2.00;;;;;23.44;58.08;101191.78;4876686;29;45397;-74
2022/09/05 02:31:40;;;;;;;;;3.00;3.00;;;;;23.32;57.81;101170.94;4896609;29;45469;-73
2022/09/05 02:34:39;;;;;;;;;1.50;1.25;;;;;23.38;58.41;101184.06;4884948;29;45423;-74
2022/09/05 02:37:38;;;;;;;;;3.50;3.50;;;;;23.28;58.22;101169.47;4884384;29;45396;-73
2022/09/05 02:40:20;;;;;;;;;3.75;3.75;;;;;23.16;58.25;101160.41;4875785;29;45587;-73
2022/09/05 02:43:09;;;;;;;;;4.25;3.25;;;;;23.13;58.32;101164.22;4885026;29;45326;-73
2022/09/05 02:45:48;;;;;;;;;3.25;3.25;;;;;23.22;58.34;101178.09;4884821;29;45497;-73
2022/09/05 02:48:29;;;;;;;;;5.00;5.00;;;;;23.16;58.04;101171.28;4889451;29;46510;-74
2022/09/05 02:51:00;;;;;;;;;5.00;3.00;;;;;23.20;58.99;101182.81;4876894;29;45681;-74
2022/09/05 02:53:26;;;;;;;;;4.00;4.00;;;;;23.16;59.15;101181.34;4884655;29;45333;-74
2022/09/05 02:56:19;;;;;;;;;3.00;2.25;;;;;23.17;59.22;101191.22;4884374;29;45462;-74
2022/09/05 02:59:10;;;;;;;;;5.00;4.00;;;;;23.16;58.82;101201.25;4867526;29;48494;-74
2022/09/05 03:01:35;;;;;;;;;3.00;3.00;;;;;23.14;59.33;101208.69;4884942;29;45436;-74
2022/09/05 03:04:14;;;;;;;;;3.25;3.25;;;;;23.10;59.44;101199.88;4884653;29;45652;-74
2022/09/05 03:07:01;;;;;;;;;2.00;2.00;;;;;23.05;59.71;101198.47;4884252;29;45393;-74
2022/09/05 03:09:29;;;;;;;;;3.50;3.50;;;;;22.99;59.75;101202.53;4876399;29;47250;-74
2022/09/05 03:12:10;;;;;;;;;4.00;3.25;;;;;22.97;59.80;101203.63;4878865;29;45438;-73
2022/09/05 03:15:07;;;;;;;;;6.00;4.75;;;;;22.94;59.94;101216.50;4876407;29;45534;-74
2022/09/05 03:17:35;;;;;;;;;3.50;3.00;;;;;22.90;60.12;101206.84;4867713;29;46202;-74
2022/09/05 03:20:22;;;;;;;;;4.00;4.00;;;;;22.89;60.23;101220.56;4879542;29;47228;-74
2022/09/05 03:22:51;;;;;;;;;5.00;5.00;;;;;22.84;60.36;101214.63;4878483;29;45791;-74
2022/09/05 03:25:35;;;;;;;;;3.50;3.25;;;;;22.85;60.57;101224.50;4884363;29;45421;-74
2022/09/05 03:28:02;;;;;;;;;4.00;3.00;;;;;22.80;60.65;101230.28;4870260;29;45480;-74
2022/09/05 03:30:47;;;;;;;;;4.75;4.75;;;;;22.76;61.24;101234.25;4876592;29;47359;-74
2022/09/05 03:33:37;;;;;;;;;5.75;4.50;;;;;22.73;61.26;101229.88;4884099;29;45578;-74
2022/09/05 03:36:36;;;;;;;;;4.00;4.00;;;;;22.72;61.34;101239.06;4883999;29;45342;-74
2022/09/05 03:39:11;;;;;;;;;5.50;3.50;;;;;22.68;61.60;101237.53;4883911;29;45386;-74
2022/09/05 03:42:07;;;;;;;;;4.75;4.00;;;;;22.68;61.45;101231.22;4884100;29;46407;-74
2022/09/05 03:44:48;;;;;;;;;3.75;3.75;;;;;22.65;61.68;101229.59;4871739;29;45686;-74
2022/09/05 03:47:32;;;;;;;;;5.25;5.00;;;;;22.63;61.44;101231.56;4883287;29;45471;-74
2022/09/05 03:50:16;;;;;;;;;4.75;4.00;;;;;22.60;61.43;101223.63;4871415;29;45538;-74
2022/09/05 03:53:02;;;;;;;;;5.00;5.00;;;;;22.57;61.36;101227.47;4883522;29;45459;-74
2022/09/05 03:55:38;;;;;;;;;4.00;4.00;;;;;22.54;61.70;101226.84;4880785;29;46192;-74
2022/09/05 03:58:12;;;;;;;;;5.25;4.25;;;;;22.50;61.58;101215.34;4889845;29;45454;-74
2022/09/05 04:00:42;;;;;;;;;3.25;3.25;;;;;22.38;61.83;101200.78;4883811;29;45318;-73
2022/09/05 04:03:37;;;;;;;;;6.00;4.50;;;;;22.47;61.76;101214.66;4883056;29;45457;-73
2022/09/05 04:06:16;;;;;;;;;3.50;3.50;;;;;22.26;61.92;101184.50;4871467;29;45974;-74
2022/09/05 04:08:53;;;;;;;;;5.00;4.00;;;;;22.43;61.88;101224.06;4878894;29;45401;-74
2022/09/05 04:11:29;;;;;;;;;6.00;4.00;;;;;22.42;62.00;101230.47;4883692;29;45258;-73
2022/09/05 04:14:00;;;;;;;;;6.25;4.25;;;;;22.39;62.01;101220.69;4871009;29;46393;-74
2022/09/05 04:16:41;;;;;;;;;4.00;3.25;;;;;22.37;61.92;101228.13;4871062;29;45491;-74
2022/09/05 04:19:40;;;;;;;;;6.50;5.00;;;;;22.24;62.52;101211.81;4882778;29;45367;-74
2022/09/05 04:22:24;;;;;;;;;5.25;5.25;;;;;22.34;62.37;101228.34;4880843;29;45629;-73
2022/09/05 04:25:15;;;;;;;;;3.50;2.75;;;;;22.33;62.34;101232.88;4869282;29;46548;-73
2022/09/05 04:28:19;;;;;;;;;6.25;5.00;;;;;22.19;62.86;101209.41;4872390;29;45938;-73
2022/09/05 04:30:57;;;;;;;;;5.00;5.00;;;;;22.28;62.79;101223.31;4876359;29;45378;-73
2022/09/05 04:33:29;;;;;;;;;7.50;5.25;;;;;22.21;63.38;101218.31;4854553;29;45416;-74
2022/09/05 04:36:16;;;;;;;;;7.25;5.00;;;;;22.26;62.47;101220.69;4883253;29;45600;-73
2022/09/05 04:38:42;;;;;;;;;4.00;4.00;;;;;22.26;63.31;101223.44;4873532;29;45447;-73
2022/09/05 04:41:15;;;;;;;;;6.50;4.75;;;;;22.16;63.37;101220.50;4883197;29;45375;-73
2022/09/05 04:43:50;;;;;;;;;6.00;5.00;;;;;22.13;63.13;101214.44;4883322;29;45339;-73
2022/09/05 04:46:28;;;;;;;;;4.00;4.00;;;;;22.12;62.89;101227.16;4870781;29;46443;-73
2022/09/05 04:49:05;;;;;;;;;4.25;4.25;;;;;22.21;63.12;101250.94;4879601;29;45404;-73
2022/09/05 04:51:49;;;;;;;;;6.00;6.00;;;;;22.20;63.59;101259.22;4883127;29;45405;-73
2022/09/05 04:54:36;;;;;;;;;6.00;6.00;;;;;22.19;63.06;101254.78;4882752;29;46082;-73
2022/09/05 04:57:07;;;;;;;;;6.00;6.00;;;;;22.18;63.60;101267.47;4882951;29;46508;-73
2022/09/05 05:00:02;;;;;;;;;7.25;6.75;;;;;22.17;63.24;101264.91;4883251;29;45616;-73
2022/09/05 05:02:38;;;;;;;;;8.00;8.00;;;;;22.07;63.36;101253.81;4883147;29;45367;-73
2022/09/05 05:05:45;;;;;;;;;8.00;7.00;;;;;22.14;63.71;101268.69;4876182;29;45696;-73
2022/09/05 05:08:19;;;;;;;;;6.00;5.50;;;;;22.13;63.98;101258.78;4837543;29;48151;-74
2022/09/05 05:10:50;;;;;;;;;7.00;7.00;;;;;22.04;64.18;101242.31;4881003;29;45448;-73
2022/09/05 05:13:25;;;;;;;;;7.00;6.50;;;;;21.91;63.87;101229.59;4865659;29;45413;-74
2022/09/05 05:15:53;;;;;;;;;8.00;8.00;;;;;22.09;64.41;101251.84;4875293;29;45280;-74
2022/09/05 05:18:26;;;;;;;;;7.50;7.50;;;;;22.07;64.48;101253.81;4885737;29;45657;-74
2022/09/05 05:21:04;;;;;;;;;13.25;9.25;;;;;22.04;63.88;101254.03;4886074;29;45295;-74
2022/09/05 05:24:10;;;;;;;;;6.50;6.50;;;;;21.88;64.56;101229.81;4885580;29;45443;-74
2022/09/05 05:27:06;;;;;;;;;5.50;5.00;;;;;22.06;64.68;101256.66;4871760;29;45556;-74
2022/09/05 05:29:47;;;;;;;;;8.00;5.25;;;;;21.99;64.31;101250.78;4876080;29;46261;-73
2022/09/05 05:32:26;;;;;;;;;8.00;8.00;;;;;21.99;64.75;101248.06;4885994;29;45401;-73
2022/09/05 05:34:57;;;;;;;;;9.00;8.25;;;;;22.02;64.79;101256.00;4886418;29;45473;-73
2022/09/05 05:37:36;;;;;;;;;9.00;8.25;;;;;21.97;64.85;101248.19;4890923;29;45441;-73
2022/09/05 05:40:16;;;;;;;;;8.50;8.50;;;;;22.01;64.30;101254.25;4889947;29;45534;-72
2022/09/05 05:42:54;;;;;;;;;8.00;7.50;;;;;21.92;64.55;101239.50;4887049;29;45427;-71
2022/09/05 05:49:06;;;;;;;;;;;;;;;;;;;;;
2022/09/05 05:52:05;;;;;;;;;9.00;7.25;;;;;21.95;65.13;101262.84;4884094;29;75202;-73
2022/09/05 05:55:07;;;;;;;;;9.25;8.00;;;;;21.72;65.01;101240.03;4866325;29;45449;-73
2022/09/05 05:58:04;;;;;;;;;9.25;8.25;;;;;22.00;64.87;101282.41;4828723;29;45601;-73
2022/09/05 06:01:21;;;;;;;;;;;;;;;;;;;;;
2022/09/05 06:04:27;;;;;;;;;10.25;10.25;;;;;21.79;65.22;101266.69;4883035;29;75252;-72
2022/09/05 06:07:25;;;;;;;;;9.25;9.25;;;;;21.99;64.91;101299.72;4876690;29;45668;-72
2022/09/05 06:10:22;;;;;;;;;;;;;;;;;;;;;
2022/09/05 06:13:28;;;;;;;;;7.00;7.00;;;;;21.95;63.46;101314.50;4890298;29;71961;-72
2022/09/05 06:16:44;;;;;;;;;6.00;6.00;;;;;21.93;62.38;101305.59;4881508;29;46505;-73
2022/09/05 06:19:51;;;;;;;;;7.25;7.25;;;;;21.92;63.40;101304.72;4881674;29;45440;-73
2022/09/05 06:22:47;;;;;;;;;;;;;;;;;;;;;
2022/09/05 06:25:45;;;;;;;;;;;;;;;;;;;;;
2022/09/05 06:28:31;;;;;;;;;6.00;6.00;;;;;21.74;63.20;101293.31;4883299;29;75119;-70
2022/09/05 06:31:24;;;;;;;;;7.25;7.25;;;;;21.93;63.74;101324.63;4881644;29;45508;-70
2022/09/05 06:34:25;;;;;;;;;5.75;5.75;;;;;21.92;63.05;101331.00;4884993;29;45464;-70
2022/09/05 06:37:10;;;;;;;;;;;;;;;;;;;;;
2022/09/05 06:39:53;;;;;;;;;5.00;5.00;;;;;21.93;63.11;101346.34;4872176;29;75361;-70
2022/09/05 06:42:40;;;;;;;;;;;;;;;;;;;;;
2022/09/05 07:26:17;;;;;;;;;5.75;5.25;;;;;21.96;63.53;101397.78;4859832;23;45295;-78
2022/09/05 07:28:47;;;;;;;;;7.00;6.25;;;;;22.11;64.72;101396.69;4890096;28;45341;-78
2022/09/05 07:31:21;;;;;;;;;6.00;6.00;;;;;22.03;63.81;101382.78;4886491;29;45384;-78
2022/09/05 07:33:50;;;;;;;;;6.00;6.00;;;;;22.15;64.30;101398.25;4896442;29;45354;-78
2022/09/05 07:36:21;;;;;;;;;6.50;5.25;;;;;22.19;64.54;101388.88;4879115;29;45404;-79
2022/09/05 07:38:50;;;;;;;;;5.00;5.00;;;;;22.23;64.36;101404.97;4887251;29;45338;-79
2022/09/05 07:41:25;;;;;;;;;5.25;5.25;;;;;22.25;64.01;101386.69;4888076;29;45153;-78
2022/09/05 07:43:59;;;;;;;;;6.00;6.00;;;;;22.33;63.61;101389.75;4882032;29;48198;-78
2022/09/05 07:46:31;;;;;;;;;6.75;6.75;;;;;22.34;64.08;101377.91;4891896;29;45452;-78
2022/09/05 07:49:04;;;;;;;;;7.00;5.25;;;;;22.28;64.59;101373.78;4868936;29;45379;-78
2022/09/05 07:51:34;;;;;;;;;6.00;6.00;;;;;22.41;63.93;101373.75;4885170;29;45261;-78
2022/09/05 07:54:23;;;;;;;;;8.00;7.50;;;;;22.42;62.85;101372.78;4859537;29;47593;-80
2022/09/05 07:57:02;;;;;;;;;11.75;10.00;;;;;22.47;63.66;101377.88;4885620;29;45436;-79
2022/09/05 07:59:32;;;;;;;;;8.00;8.00;;;;;22.51;63.83;101366.66;4882883;29;45704;-78
2022/09/05 08:01:59;;;;;;;;;6.25;5.00;;;;;22.56;64.17;101378.09;4896368;29;45353;-78
2022/09/05 08:04:33;;;;;;;;;6.50;5.75;;;;;22.62;64.39;101378.63;4882192;29;45691;-78
2022/09/05 08:07:05;;;;;;;;;7.50;7.50;;;;;22.66;64.50;101366.53;4877390;28;45250;-78
2022/09/05 08:09:36;;;;;;;;;7.00;5.00;;;;;22.60;63.82;101347.94;4883606;29;45867;-76
2022/09/05 08:12:10;;;;;;;;;7.50;7.50;;;;;22.71;63.74;101356.19;4886315;29;45286;-77
2022/09/05 08:14:35;;;;;;;;;6.50;4.25;;;;;22.79;62.37;101361.94;4885926;29;45493;-77
2022/09/05 08:17:05;;;;;;;;;6.50;5.75;;;;;22.83;62.60;101354.41;4886502;29;45387;-77
2022/09/05 08:19:54;;;;;;;;;6.25;6.25;;;;;22.81;62.90;101342.75;4884604;29;45315;-77
2022/09/05 08:22:24;;;;;;;;;5.00;5.00;;;;;22.97;61.83;101356.06;4884960;29;45517;-77
2022/09/05 08:25:06;;;;;;;;;3.25;3.25;;;;;22.97;62.13;101356.97;4879450;29;46172;-77
2022/09/05 08:28:05;;;;;;;;;5.75;5.25;;;;;23.10;61.86;101365.09;4868334;29;45645;-77
2022/09/05 08:30:44;;;;;;;;;6.00;5.00;;;;;23.16;61.69;101361.91;4861627;29;45538;-77
2022/09/05 08:33:16;;;;;;;;;5.25;5.25;;;;;23.21;59.98;101365.16;4868854;29;45266;-78
2022/09/05 08:35:44;;;;;;;;;5.00;5.00;;;;;23.27;59.14;101370.16;4865072;29;45399;-79
2022/09/05 08:38:12;;;;;;;;;2.75;2.00;;;;;23.33;60.31;101370.66;4868233;29;46201;-79
2022/09/05 08:40:50;;;;;;;;;6.50;4.50;;;;;23.33;60.45;101357.03;4861321;29;45366;-79
2022/09/05 08:43:53;;;;;;;;;5.75;5.75;;;;;23.46;59.97;101368.72;4859204;29;45320;-79
2022/09/05 08:46:50;;;;;;;;;5.50;5.50;;;;;23.50;59.81;101359.31;4862684;29;46150;-78
2022/09/05 08:49:31;;;;;;;;;4.00;4.00;;;;;23.61;58.96;101363.97;4869580;29;45341;-77
2022/09/05 08:52:07;;;;;;;;;6.00;6.00;;;;;23.65;58.95;101363.56;4870115;29;45458;-78
2022/09/05 08:54:59;;;;;;;;;3.25;3.25;;;;;23.71;57.76;101366.84;4864301;29;45365;-79
2022/09/05 08:58:02;;;;;;;;;4.25;4.25;;;;;23.77;57.74;101371.78;4855389;29;46377;-82
2022/09/05 09:00:35;;;;;;;;;4.75;4.75;;;;;23.79;57.72;101372.53;4866510;29;45383;-81
2022/09/05 09:03:05;;;;;;;;;5.00;5.00;;;;;23.84;57.61;101381.28;4846906;29;45399;-81
2022/09/05 09:05:56;;;;;;;;;6.50;6.50;;;;;23.91;57.96;101398.03;4870696;29;45357;-81
2022/09/05 09:08:58;;;;;;;;;5.00;5.00;;;;;23.94;57.84;101398.63;4857579;29;47213;-81
2022/09/05 09:11:33;;;;;;;;;6.00;6.00;;;;;23.99;57.76;101390.97;4861944;29;45324;-81
2022/09/05 09:14:50;;;;;;;;;4.75;4.75;;;;;24.03;57.92;101381.53;4845414;29;45439;-81
2022/09/05 09:17:27;;;;;;;;;5.25;5.25;;;;;24.09;59.50;101376.59;4822267;29;45427;-81
2022/09/05 09:20:04;;;;;;;;;6.25;6.25;;;;;24.12;59.87;101385.38;4871540;29;46578;-81
2022/09/05 09:22:37;;;;;;;;;7.50;4.75;;;;;24.14;58.07;101391.63;4867290;29;45442;-81
2022/09/05 09:25:12;;;;;;;;;5.50;4.25;;;;;24.18;56.29;101394.97;4876903;29;45213;-80
2022/09/05 09:28:08;;;;;;;;;5.00;4.25;;;;;24.23;58.12;101390.84;4871676;29;45292;-80
2022/09/05 09:30:39;;;;;;;;;3.00;3.00;;;;;24.30;56.56;101393.09;4886737;29;45305;-80
2022/09/05 09:33:08;;;;;;;;;3.00;3.00;;;;;24.35;56.94;101385.41;4885659;29;45363;-81
2022/09/05 09:35:57;;;;;;;;;3.75;3.75;;;;;24.40;55.83;101381.31;4887279;29;45173;-81
2022/09/05 09:39:00;;;;;;;;;4.50;3.25;;;;;24.46;55.40;101376.34;4888222;29;45401;-81
2022/09/05 09:41:47;;;;;;;;;3.00;3.00;;;;;24.51;55.24;101376.88;4871516;29;47328;-80
2022/09/05 09:44:31;;;;;;;;;3.00;2.00;;;;;24.52;54.75;101373.97;4869191;29;46515;-79
2022/09/05 09:46:56;;;;;;;;;2.00;2.00;;;;;24.54;55.01;101371.13;4885721;29;45444;-79
2022/09/05 09:49:40;;;;;;;;;2.00;2.00;;;;;24.56;53.34;101370.06;4888059;29;45468;-79
2022/09/05 09:52:20;;;;;;;;;5.50;4.00;;;;;24.61;53.88;101361.50;4889690;29;45503;-79
2022/09/05 09:54:52;;;;;;;;;3.00;3.00;;;;;24.67;53.56;101357.38;4898018;29;45279;-79
2022/09/05 09:58:02;;;;;;;;;2.25;1.00;;;;;24.66;53.58;101348.34;4886914;29;45694;-78
2022/09/05 10:00:52;;;;;;;;;1.75;1.75;;;;;24.74;54.83;101350.41;4856134;29;45595;-80
2022/09/05 10:03:40;;;;;;;;;3.00;3.00;;;;;24.84;52.96;101350.53;4876371;29;46672;-80
2022/09/05 10:06:30;;;;;;;;;3.75;3.00;;;;;24.88;52.28;101338.38;4877985;29;45334;-84
2022/09/05 10:09:14;;;;;;;;;2.25;2.25;;;;;24.91;52.04;101341.72;4890455;29;45408;-80
2022/09/05 10:12:13;;;;;;;;;2.75;1.75;;;;;24.94;51.39;101330.53;4891275;29;45425;-80
2022/09/05 10:15:04;;;;;;;;;2.75;2.75;;;;;24.94;51.24;101318.72;4887135;29;45411;-79
2022/09/05 10:17:56;;;;;;;;;0.00;0.00;;;;;24.95;51.08;101304.09;4885890;29;45286;-79
2022/09/05 10:20:39;;;;;;;;;4.00;3.00;;;;;25.03;51.62;101315.22;4878626;29;45319;-79
2022/09/05 10:23:28;;;;;;;;;2.00;2.00;;;;;25.13;51.41;101320.78;4898448;29;45410;-80
2022/09/05 10:26:23;;;;;;;;;4.00;2.25;;;;;25.17;50.79;101310.47;4885992;29;46356;-79
2022/09/05 10:29:07;;;;;;;;;2.00;2.00;;;;;25.18;49.26;101310.31;4889263;29;45511;-79
2022/09/05 10:31:55;;;;;;;;;3.25;3.25;;;;;25.21;48.94;101325.56;4887820;29;45284;-79
2022/09/05 10:34:24;;;;;;;;;2.00;2.00;;;;;25.24;50.40;101319.84;4895567;29;45461;-79
2022/09/05 10:36:53;;;;;;;;;1.75;1.75;;;;;25.29;51.04;101320.34;4867797;29;47468;-80
2022/09/05 10:39:29;;;;;;;;;2.00;2.00;;;;;25.37;49.11;101319.72;4885644;29;45287;-79
2022/09/05 10:42:00;;;;;;;;;3.00;2.00;;;;;25.38;48.33;101316.00;4891786;29;45451;-79
2022/09/05 10:44:52;;;;;;;;;1.75;1.75;;;;;25.41;48.91;101315.69;4885165;29;45362;-79
2022/09/05 10:47:37;;;;;;;;;2.75;2.75;;;;;25.43;48.04;101302.78;4881342;29;45418;-79
2022/09/05 10:50:26;;;;;;;;;2.00;2.00;;;;;25.44;47.90;101305.41;4883927;29;45707;-80
2022/09/05 10:53:41;;;;;;;;;2.00;2.00;;;;;25.45;47.46;101298.91;4870608;29;45315;-80
2022/09/05 10:56:22;;;;;;;;;1.50;1.50;;;;;25.47;47.12;101290.56;4865089;29;45744;-80
2022/09/05 10:59:00;;;;;;;;;2.25;1.25;;;;;25.50;48.18;101293.06;4886317;29;47075;-79
2022/09/05 11:01:40;;;;;;;;;1.25;1.25;;;;;25.56;48.25;101287.06;4898095;29;44771;-79
2022/09/05 11:04:22;;;;;;;;;2.00;2.00;;;;;25.59;47.43;101283.16;4888141;29;45368;-79
2022/09/05 11:06:59;;;;;;;;;2.00;2.00;;;;;25.64;46.46;101278.16;4888595;28;45422;-79
2022/09/05 11:09:45;;;;;;;;;2.00;2.00;;;;;25.66;47.43;101281.63;4878591;29;47376;-79
2022/09/05 11:12:27;;;;;;;;;2.75;2.75;;;;;25.76;46.87;101292.63;4869858;29;45231;-79
2022/09/05 11:14:56;;;;;;;;;5.25;4.00;;;;;25.77;46.32;101283.44;4868102;29;45209;-79
2022/09/05 11:17:38;;;;;;;;;2.25;2.00;;;;;25.80;46.79;101284.03;4886011;29;45232;-79
2022/09/05 11:20:31;;;;;;;;;4.25;4.25;;;;;25.83;46.04;101286.47;4869577;29;47179;-79
2022/09/05 11:23:03;;;;;;;;;3.00;2.00;;;;;25.84;44.92;101277.28;4885953;29;45408;-79
2022/09/05 11:25:31;;;;;;;;;3.00;3.00;;;;;25.85;46.05;101273.53;4871656;29;45430;-79
2022/09/05 11:28:09;;;;;;;;;4.75;2.75;;;;;25.83;45.43;101269.22;4886059;29;45450;-79
2022/09/05 11:30:39;;;;;;;;;3.00;3.00;;;;;25.88;46.19;101277.88;4883290;29;45328;-79
2022/09/05 11:33:30;;;;;;;;;1.25;1.25;;;;;25.93;45.16;101280.19;4870916;29;45268;-80
2022/09/05 11:36:13;;;;;;;;;2.00;2.00;;;;;25.94;45.83;101271.84;4876290;29;45670;-80
2022/09/05 11:38:45;;;;;;;;;2.00;2.00;;;;;26.02;45.11;101263.00;4874207;29;45785;-80
2022/09/05 11:41:44;;;;;;;;;3.00;3.00;;;;;26.06;45.93;101261.69;4885119;29;47593;-80
2022/09/05 11:44:27;;;;;;;;;1.25;1.00;;;;;26.09;45.38;101250.47;4868504;29;45318;-80
2022/09/05 11:47:04;;;;;;;;;2.00;2.00;;;;;26.13;45.70;101251.06;4874824;29;45362;-80
2022/09/05 11:49:59;;;;;;;;;2.00;2.00;;;;;26.17;44.75;101252.53;4884473;29;45224;-80
2022/09/05 11:52:59;;;;;;;;;2.00;2.00;;;;;26.20;45.55;101250.38;4875817;29;47257;-80
2022/09/05 11:55:27;;;;;;;;;2.00;2.00;;;;;26.24;45.22;101259.19;4884606;29;45313;-78
2022/09/05 11:58:49;;;;;;;;;1.25;1.25;;;;;26.28;43.88;101249.69;4872015;29;45466;-80
2022/09/05 12:01:32;;;;;;;;;2.50;2.50;;;;;26.32;43.24;101245.66;4776988;29;46697;-82
2022/09/05 12:04:05;;;;;;;;;3.25;3.25;;;;;26.38;43.68;101241.47;4783327;29;48125;-81
2022/09/05 12:06:40;;;;;;;;;2.00;2.00;;;;;26.40;43.66;101239.50;4843646;29;45558;-80
2022/09/05 12:09:24;;;;;;;;;2.75;2.75;;;;;26.43;43.26;101236.50;4891191;29;44821;-81
2022/09/05 12:12:22;;;;;;;;;0.25;0.25;;;;;26.46;42.82;101227.97;4880803;29;45306;-80
2022/09/05 12:15:02;;;;;;;;;3.00;3.00;;;;;26.45;43.48;101220.78;4882863;29;48084;-80
2022/09/05 12:17:40;;;;;;;;;3.50;3.00;;;;;26.46;42.73;101216.16;4896324;29;45200;-80
2022/09/05 12:20:19;;;;;;;;;3.75;3.75;;;;;26.54;42.97;101210.84;4895370;29;45360;-80
2022/09/05 12:23:18;;;;;;;;;2.00;2.00;;;;;26.58;42.39;101210.41;4877469;29;45346;-80
2022/09/05 12:26:03;;;;;;;;;2.75;2.00;;;;;26.67;42.59;101222.41;4888753;29;46578;-80
2022/09/05 12:28:42;;;;;;;;;3.25;3.25;;;;;26.70;41.86;101207.59;4888651;29;45546;-82
2022/09/05 12:31:16;;;;;;;;;2.00;2.00;;;;;26.74;41.82;101209.88;4878486;29;45489;-82
2022/09/05 12:33:47;;;;;;;;;4.00;3.00;;;;;26.75;41.46;101191.59;4884653;29;45253;-80
2022/09/05 12:36:15;;;;;;;;;2.75;2.75;;;;;26.82;41.60;101183.66;4883477;29;45477;-82
2022/09/05 12:39:18;;;;;;;;;3.25;3.00;;;;;26.84;41.65;101170.69;4884550;29;45361;-80
2022/09/05 12:41:57;;;;;;;;;3.50;3.50;;;;;26.83;41.35;101158.88;4876247;29;45438;-80
2022/09/05 12:44:41;;;;;;;;;3.75;3.50;;;;;26.89;41.41;101154.66;4875676;29;45410;-80
2022/09/05 12:47:12;;;;;;;;;2.25;2.25;;;;;26.93;41.04;101142.38;4880918;29;46127;-80
2022/09/05 12:50:05;;;;;;;;;4.00;4.00;;;;;26.98;41.14;101137.34;4887470;29;45437;-81
2022/09/05 12:52:35;;;;;;;;;3.00;3.00;;;;;27.04;41.25;101138.63;4876439;29;44810;-80
2022/09/05 12:55:26;;;;;;;;;3.25;3.25;;;;;27.11;41.64;101128.81;4890330;29;45404;-80
2022/09/05 12:57:59;;;;;;;;;4.00;4.00;;;;;27.15;40.81;101124.78;4880154;29;47167;-80
2022/09/05 13:00:24;;;;;;;;;4.00;4.00;;;;;27.16;41.36;101121.00;4886549;29;45268;-80
2022/09/05 13:02:59;;;;;;;;;5.00;5.00;;;;;27.23;41.01;101124.91;4886532;29;45383;-80
2022/09/05 13:05:46;;;;;;;;;5.00;5.00;;;;;27.08;41.76;101085.25;4888287;29;45490;-80
2022/09/05 13:08:20;;;;;;;;;5.75;4.75;;;;;27.25;41.22;101100.94;4891349;29;47247;-82
2022/09/05 13:10:52;;;;;;;;;4.50;4.00;;;;;27.35;41.13;101104.53;4879082;29;45467;-82
2022/09/05 13:13:27;;;;;;;;;6.75;5.75;;;;;27.42;40.57;101115.75;4884758;29;45374;-82
2022/09/05 13:15:53;;;;;;;;;6.75;5.75;;;;;27.45;40.75;101109.97;4883391;29;45844;-82
2022/09/05 13:18:33;;;;;;;;;6.75;6.75;;;;;27.47;40.95;101096.97;4887340;29;45514;-82
2022/09/05 13:21:07;;;;;;;;;4.75;4.75;;;;;27.53;40.62;101100.97;4876872;29;45311;-81
2022/09/05 13:23:45;;;;;;;;;3.50;3.00;;;;;27.60;39.77;101104.88;4870454;29;45470;-82
2022/09/05 13:26:36;;;;;;;;;6.25;6.25;;;;;27.63;40.21;101114.66;4891364;29;45355;-82
2022/09/05 13:29:13;;;;;;;;;4.25;4.25;;;;;27.60;39.67;101115.84;4874297;29;46105;-82
2022/09/05 13:31:40;;;;;;;;;5.00;4.00;;;;;27.68;40.51;101143.34;4883530;29;45398;-82